Time;durP1;ratioP1;P1;durP2;ratioP2;P2;SDS_P1;SDS_P2;PMS_P1;PMS_P2;Temp;Humidity;BMP_temperature;BMP_pressure;BME280_temperature;BME280_humidity;BME280_pressure;Samples;Min_cycle;Max_cycle;Signal;HPM_P1;HPM_P2
2023/07/29 00:01:15;;;;;;;5.53;4.43;;;;;;;24.17;47.32;94699.25;5072446;28;20463;-75
2023/07/29 00:03:42;;;;;;;5.23;4.73;;;;;;;24.12;47.77;94704.44;5072271;28;20452;-75
2023/07/29 00:06:13;;;;;;;4.97;4.57;;;;;;;24.22;46.93;94702.91;5071930;28;20466;-75
2023/07/29 00:08:41;;;;;;;4.70;4.30;;;;;;;24.06;47.00;94698.09;5021457;28;20453;-74
2023/07/29 00:11:08;;;;;;;6.90;4.10;;;;;;;23.79;47.81;94702.81;5073684;28;20454;-74
2023/07/29 00:13:34;;;;;;;4.10;3.80;;;;;;;23.53;48.84;94706.44;5075743;28;20504;-75
2023/07/29 00:16:01;;;;;;;6.47;4.27;;;;;;;23.29;49.35;94705.31;5076024;28;20858;-74
2023/07/29 00:18:28;;;;;;;8.17;5.80;;;;;;;23.19;50.42;94702.28;5024158;28;20450;-74
2023/07/29 00:20:55;;;;;;;8.67;5.53;;;;;;;23.20;51.03;94709.28;5076008;28;20512;-75
2023/07/29 00:23:22;;;;;;;8.67;7.33;;;;;;;23.44;49.88;94711.22;5075945;28;20525;-75
2023/07/29 00:25:50;;;;;;;12.00;10.70;;;;;;;23.41;49.62;94703.59;5023846;28;20933;-75
2023/07/29 00:28:17;;;;;;;22.23;11.97;;;;;;;23.25;49.70;94696.06;5075453;28;20446;-75
2023/07/29 00:30:44;;;;;;;14.43;10.90;;;;;;;23.02;50.94;94699.25;5075796;28;20470;-75
2023/07/29 00:33:11;;;;;;;12.50;10.50;;;;;;;22.96;50.61;94705.44;5075612;28;21624;-75
2023/07/29 00:35:37;;;;;;;7.90;7.10;;;;;;;22.80;51.50;94704.00;5075454;28;20471;-74
2023/07/29 00:38:04;;;;;;;9.03;6.70;;;;;;;22.57;52.12;94703.66;5024180;28;20446;-74
2023/07/29 00:40:36;;;;;;;6.90;5.73;;;;;;;22.49;52.94;94702.00;5075361;28;20449;-75
2023/07/29 00:43:04;;;;;;;8.63;6.93;;;;;;;22.60;53.59;94711.28;5075335;28;20465;-75
2023/07/29 00:45:32;;;;;;;7.40;5.77;;;;;;;22.78;53.32;94700.72;5075608;28;20457;-74
2023/07/29 00:47:59;;;;;;;6.00;5.50;;;;;;;22.80;52.91;94693.31;5023678;28;20451;-75
2023/07/29 00:50:27;;;;;;;7.23;6.53;;;;;;;22.74;52.10;94694.16;5075213;28;20845;-75
2023/07/29 00:52:57;;;;;;;6.70;5.30;;;;;;;22.15;53.20;94694.22;5075277;28;20494;-74
2023/07/29 00:55:24;;;;;;;6.23;5.20;;;;;;;21.88;55.06;94690.69;5075183;28;20875;-74
2023/07/29 00:57:54;;;;;;;5.33;4.80;;;;;;;21.90;55.65;94686.78;5075472;28;20440;-74
2023/07/29 01:00:22;;;;;;;5.27;4.77;;;;;;;22.56;54.47;94684.13;5075267;28;20915;-74
2023/07/29 01:02:49;;;;;;;7.53;5.00;;;;;;;22.95;53.48;94689.59;5074908;28;20453;-75
2023/07/29 01:05:17;;;;;;;5.67;4.33;;;;;;;23.53;51.33;94679.66;5074941;28;20792;-74
2023/07/29 01:07:50;;;;;;;4.37;4.07;;;;;;;23.94;50.02;94683.75;5074917;28;20447;-75
2023/07/29 01:10:25;;;;;;;7.90;4.40;;;;;;;24.15;48.84;94679.88;5075125;28;20448;-74
2023/07/29 01:12:57;;;;;;;4.37;3.97;;;;;;;24.27;48.37;94680.78;5022682;28;20483;-74
2023/07/29 01:15:29;;;;;;;6.53;5.93;;;;;;;24.41;48.18;94685.03;5075042;28;20444;-74
2023/07/29 01:18:00;;;;;;;10.93;9.33;;;;;;;24.23;47.91;94677.72;5074539;28;20441;-75
2023/07/29 01:20:27;;;;;;;8.00;7.13;;;;;;;24.25;48.35;94685.56;5074452;28;20933;-74
2023/07/29 01:22:54;;;;;;;8.80;7.87;;;;;;;24.16;48.02;94681.50;5074223;28;20452;-74
2023/07/29 01:25:22;;;;;;;7.10;6.40;;;;;;;24.26;48.03;94679.16;5074524;28;20448;-74
2023/07/29 01:27:51;;;;;;;7.47;6.07;;;;;;;24.16;47.73;94684.19;5074423;28;20443;-75
2023/07/29 01:30:18;;;;;;;6.17;5.57;;;;;;;24.03;48.29;94680.59;5074679;28;20452;-75
2023/07/29 01:32:52;;;;;;;9.57;6.10;;;;;;;23.93;48.53;94685.59;5073981;28;20497;-75
2023/07/29 01:35:24;;;;;;;16.40;8.57;;;;;;;23.86;48.73;94686.69;5074268;28;20462;-75
2023/07/29 01:37:55;;;;;;;7.87;6.77;;;;;;;23.86;48.30;94674.09;5074505;28;20552;-75
2023/07/29 01:40:26;;;;;;;21.30;14.10;;;;;;;23.89;47.52;94681.72;5022743;28;20447;-75
2023/07/29 01:42:54;;;;;;;17.10;10.87;;;;;;;23.28;49.87;94684.09;5074500;28;20448;-75
2023/07/29 01:45:25;;;;;;;14.53;9.50;;;;;;;23.00;50.46;94679.91;5074302;28;20564;-74
2023/07/29 01:47:52;;;;;;;13.03;8.70;;;;;;;22.85;51.50;94695.41;5022017;28;20451;-75
2023/07/29 01:50:21;;;;;;;10.27;7.47;;;;;;;22.53;52.48;94681.00;5077548;28;20505;-75
2023/07/29 01:52:48;;;;;;;10.97;8.10;;;;;;;22.15;53.97;94688.88;5082153;28;20826;-74
2023/07/29 01:55:16;;;;;;;8.63;7.13;;;;;;;21.86;55.78;94687.41;5074674;28;20453;-75
2023/07/29 01:57:45;;;;;;;9.83;7.00;;;;;;;21.84;55.86;94687.59;5074722;28;20448;-75
2023/07/29 02:00:12;;;;;;;15.03;8.67;;;;;;;21.85;55.73;94688.44;5038765;28;20474;-75
2023/07/29 02:02:39;;;;;;;14.33;9.83;;;;;;;21.92;56.58;94686.56;5073741;28;20439;-75
2023/07/29 02:05:06;;;;;;;22.07;13.77;;;;;;;22.13;55.37;94694.44;5022026;28;20789;-74
2023/07/29 02:07:33;;;;;;;29.63;16.30;;;;;;;22.29;53.95;94684.38;5074070;28;20453;-75
2023/07/29 02:10:00;;;;;;;24.50;15.83;;;;;;;22.29;54.02;94689.72;5073710;28;20453;-75
2023/07/29 02:12:27;;;;;;;29.67;17.93;;;;;;;22.23;53.57;94694.00;5073748;28;20490;-75
2023/07/29 02:14:55;;;;;;;26.80;14.80;;;;;;;22.02;54.82;94699.56;5073607;28;20452;-74
2023/07/29 02:17:22;;;;;;;16.13;10.60;;;;;;;22.00;55.76;94697.09;5055047;28;20435;-74
2023/07/29 02:19:49;;;;;;;13.23;9.20;;;;;;;22.28;55.34;94696.09;5073368;28;20443;-74
2023/07/29 02:22:17;;;;;;;11.70;8.80;;;;;;;22.60;54.15;94697.06;5073680;28;20449;-75
2023/07/29 02:24:44;;;;;;;13.30;7.70;;;;;;;23.31;52.62;94705.09;5073415;28;20458;-75
2023/07/29 02:27:11;;;;;;;11.90;7.13;;;;;;;23.38;51.25;94697.84;5073337;28;20445;-74
2023/07/29 02:29:38;;;;;;;8.20;6.17;;;;;;;23.29;51.81;94702.63;5073214;28;20775;-74
2023/07/29 02:32:08;;;;;;;7.93;6.27;;;;;;;23.74;50.90;94700.78;5073088;28;20496;-75
2023/07/29 02:34:35;;;;;;;10.63;6.73;;;;;;;23.57;49.98;94699.66;5072440;28;20455;-75
2023/07/29 02:37:01;;;;;;;6.47;5.83;;;;;;;23.59;50.81;94700.25;5072837;28;20446;-74
2023/07/29 02:39:28;;;;;;;12.90;6.43;;;;;;;23.63;51.08;94692.59;5073026;28;20460;-75
2023/07/29 02:41:55;;;;;;;7.50;5.43;;;;;;;23.86;49.79;94692.06;5073253;28;20443;-75
2023/07/29 02:44:22;;;;;;;8.27;6.97;;;;;;;24.15;49.63;94695.97;5073230;28;20453;-75
2023/07/29 02:46:49;;;;;;;5.90;5.37;;;;;;;24.51;48.09;94696.09;5072584;28;20462;-75
2023/07/29 02:49:17;;;;;;;13.37;6.43;;;;;;;24.52;47.97;94691.53;5072768;28;21120;-75
2023/07/29 02:51:44;;;;;;;5.10;4.70;;;;;;;24.40;47.38;94688.78;5072873;28;20467;-74
2023/07/29 02:54:11;;;;;;;5.97;4.70;;;;;;;24.16;48.41;94686.88;5082905;28;20441;-74
2023/07/29 02:56:38;;;;;;;7.93;5.27;;;;;;;24.15;48.38;94687.91;5093473;28;20447;-74
2023/07/29 02:59:05;;;;;;;6.13;4.93;;;;;;;24.07;48.67;94689.03;5092691;28;21227;-74
2023/07/29 03:01:32;;;;;;;5.70;5.20;;;;;;;23.93;49.32;94682.91;5093104;28;20446;-74
2023/07/29 03:03:58;;;;;;;9.63;5.30;;;;;;;24.14;48.82;94688.97;5092732;28;20917;-75
2023/07/29 03:06:27;;;;;;;5.80;4.23;;;;;;;24.06;48.68;94687.38;5093269;28;20455;-75
2023/07/29 03:08:53;;;;;;;6.03;5.03;;;;;;;24.23;48.82;94695.69;5093041;28;20448;-74
2023/07/29 03:11:20;;;;;;;6.70;5.30;;;;;;;24.06;48.93;94701.59;5092722;28;20451;-75
2023/07/29 03:13:50;;;;;;;16.47;6.23;;;;;;;23.92;48.61;94705.41;5092823;28;20488;-75
2023/07/29 03:16:18;;;;;;;5.47;4.70;;;;;;;23.59;49.88;94702.09;5092844;28;20448;-75
2023/07/29 03:18:45;;;;;;;8.93;6.60;;;;;;;23.37;51.29;94709.59;5092586;28;20451;-75
2023/07/29 03:21:12;;;;;;;6.00;5.07;;;;;;;23.17;50.91;94712.38;5092897;28;20446;-75
2023/07/29 03:23:40;;;;;;;5.93;5.27;;;;;;;22.45;53.11;94713.31;5092710;28;20449;-74
2023/07/29 03:26:10;;;;;;;5.50;5.10;;;;;;;21.99;55.09;94718.66;5092735;28;20449;-75
2023/07/29 03:28:38;;;;;;;6.27;5.77;;;;;;;21.95;55.25;94720.91;5092571;28;20447;-74
2023/07/29 03:31:08;;;;;;;7.83;6.23;;;;;;;21.52;56.91;94710.56;5092306;28;20471;-75
2023/07/29 03:33:35;;;;;;;6.53;5.43;;;;;;;21.18;58.35;94715.97;5092568;28;20597;-74
2023/07/29 03:36:02;;;;;;;6.13;5.57;;;;;;;21.09;58.81;94717.13;5092643;28;20850;-74
2023/07/29 03:38:29;;;;;;;10.67;5.87;;;;;;;21.05;60.59;94716.72;5090034;28;20444;-74
2023/07/29 03:40:57;;;;;;;10.40;6.03;;;;;;;21.36;59.68;94736.78;5073682;28;20461;-74
2023/07/29 03:43:27;;;;;;;7.07;5.93;;;;;;;21.49;58.03;94726.97;5082293;28;20945;-74
2023/07/29 03:45:56;;;;;;;7.60;6.20;;;;;;;21.55;58.28;94731.50;5076833;28;20451;-75
2023/07/29 03:48:23;;;;;;;7.80;4.80;;;;;;;21.65;58.34;94728.44;5071714;28;20446;-75
2023/07/29 03:50:50;;;;;;;10.47;6.43;;;;;;;21.61;57.89;94730.69;5072064;28;21121;-74
2023/07/29 03:53:17;;;;;;;9.00;5.57;;;;;;;21.17;58.51;94728.47;5072148;28;20483;-74
2023/07/29 03:55:47;;;;;;;10.00;5.80;;;;;;;20.89;59.92;94719.72;5071882;28;20455;-74
2023/07/29 03:58:16;;;;;;;15.27;6.00;;;;;;;20.77;60.77;94723.97;5053512;28;20460;-75
2023/07/29 04:00:42;;;;;;;7.50;5.60;;;;;;;20.97;61.40;94720.38;5074319;28;20441;-75
2023/07/29 04:03:15;;;;;;;6.90;6.20;;;;;;;21.52;59.68;94728.44;5092540;28;20858;-74
2023/07/29 04:05:42;;;;;;;11.93;5.40;;;;;;;22.20;57.36;94721.16;5086561;28;20446;-74
2023/07/29 04:08:12;;;;;;;7.43;5.90;;;;;;;22.76;56.08;94726.84;5071823;28;20455;-74
2023/07/29 04:10:39;;;;;;;7.73;5.70;;;;;;;23.13;55.04;94724.50;5071991;28;20469;-75
2023/07/29 04:13:06;;;;;;;7.70;5.93;;;;;;;23.29;54.46;94724.06;5071986;28;20499;-75
2023/07/29 04:15:34;;;;;;;7.83;5.63;;;;;;;23.63;53.69;94724.75;5071681;28;20959;-76
2023/07/29 04:18:02;;;;;;;5.97;5.40;;;;;;;24.13;52.86;94724.84;5070921;28;20860;-75
2023/07/29 04:20:30;;;;;;;10.10;6.73;;;;;;;24.59;51.11;94730.69;5070890;28;20450;-76
2023/07/29 04:22:58;;;;;;;5.80;5.30;;;;;;;24.83;49.58;94726.31;5071121;28;20853;-75
2023/07/29 04:25:24;;;;;;;7.30;5.50;;;;;;;24.76;49.47;94735.50;5070706;28;20460;-75
2023/07/29 04:27:51;;;;;;;8.80;5.60;;;;;;;25.01;49.14;94723.69;5070714;28;20446;-74
2023/07/29 04:30:18;;;;;;;11.20;6.60;;;;;;;25.24;48.62;94728.41;5070794;28;20504;-74
2023/07/29 04:32:48;;;;;;;6.90;6.23;;;;;;;25.51;48.56;94728.09;5070629;28;20486;-74
2023/07/29 04:35:18;;;;;;;6.63;6.03;;;;;;;25.76;47.52;94719.94;5070761;28;20480;-74
2023/07/29 04:37:47;;;;;;;11.03;6.93;;;;;;;26.05;47.16;94723.66;5071434;28;20441;-79
2023/07/29 04:40:15;;;;;;;7.57;6.10;;;;;;;26.33;46.74;94726.53;5071121;28;20540;-78
2023/07/29 04:42:42;;;;;;;6.23;5.73;;;;;;;26.43;45.75;94729.47;5071398;28;20528;-76
2023/07/29 04:45:09;;;;;;;8.13;5.70;;;;;;;26.66;45.81;94734.06;5071331;28;20454;-76
2023/07/29 04:47:41;;;;;;;6.00;4.73;;;;;;;26.88;45.14;94731.59;5019694;28;20444;-75
2023/07/29 04:50:10;;;;;;;6.97;5.13;;;;;;;27.40;46.73;94734.38;5071073;28;20472;-77
2023/07/29 04:52:37;;;;;;;7.70;5.90;;;;;;;27.52;43.53;94732.50;5070693;28;20452;-76
2023/07/29 04:55:05;;;;;;;9.80;6.43;;;;;;;27.60;42.13;94736.69;5070707;28;20445;-75
2023/07/29 04:57:32;;;;;;;6.73;5.13;;;;;;;27.53;42.48;94734.13;5072925;28;20433;-77
2023/07/29 04:59:59;;;;;;;6.27;4.60;;;;;;;27.50;42.44;94739.19;5074181;28;21099;-73
2023/07/29 05:02:26;;;;;;;6.13;5.37;;;;;;;27.56;42.57;94741.72;5022425;28;20437;-74
2023/07/29 05:04:56;;;;;;;6.13;5.40;;;;;;;27.65;41.60;94740.31;5073934;28;20927;-73
2023/07/29 05:07:24;;;;;;;5.47;4.97;;;;;;;27.64;42.02;94744.06;5074513;28;20804;-75
2023/07/29 05:09:50;;;;;;;5.63;5.13;;;;;;;27.71;42.17;94743.94;5074229;28;20444;-73
2023/07/29 05:12:17;;;;;;;5.13;4.67;;;;;;;27.91;41.72;94743.50;5022087;28;20445;-74
2023/07/29 05:14:44;;;;;;;6.80;5.20;;;;;;;28.14;42.16;94748.00;5089608;28;20480;-74
2023/07/29 05:17:11;;;;;;;6.53;5.10;;;;;;;28.07;41.45;94750.84;5041368;28;20459;-74
2023/07/29 05:19:40;;;;;;;5.30;4.80;;;;;;;28.22;41.43;94751.09;5093097;28;20436;-74
2023/07/29 05:22:07;;;;;;;7.83;5.67;;;;;;;28.30;41.50;94758.00;5080742;28;20468;-74
2023/07/29 05:24:35;;;;;;;5.87;5.37;;;;;;;28.16;41.08;94751.25;5077120;28;20445;-79
2023/07/29 05:27:04;;;;;;;6.47;5.13;;;;;;;27.61;42.55;94758.00;5094488;28;20462;-75
2023/07/29 05:29:33;;;;;;;5.47;4.97;;;;;;;27.70;42.69;94756.59;5090561;28;20460;-76
2023/07/29 05:32:00;;;;;;;6.50;5.30;;;;;;;27.36;42.57;94752.91;5102126;28;20474;-74
2023/07/29 05:34:27;;;;;;;4.87;4.43;;;;;;;27.01;43.49;94761.03;5098125;28;20483;-74
2023/07/29 05:36:54;;;;;;;5.30;4.80;;;;;;;26.43;43.92;94760.97;5093534;28;20444;-75
2023/07/29 05:39:24;;;;;;;5.37;4.97;;;;;;;26.51;43.59;94757.91;5093612;28;20949;-75
2023/07/29 05:41:52;;;;;;;5.83;4.17;;;;;;;26.80;43.94;94769.66;5093626;28;21160;-77
2023/07/29 05:44:21;;;;;;;6.80;4.90;;;;;;;27.28;43.94;94772.13;5093587;28;20459;-76
2023/07/29 05:46:50;;;;;;;6.80;5.23;;;;;;;27.70;43.33;94772.78;5093416;28;20447;-76
2023/07/29 05:49:19;;;;;;;7.93;4.40;;;;;;;27.92;43.24;94778.34;5092604;28;21001;-75
2023/07/29 05:51:50;;;;;;;5.20;4.80;;;;;;;27.68;41.53;94777.59;5093249;28;20857;-74
2023/07/29 05:54:18;;;;;;;4.60;4.20;;;;;;;27.29;42.00;94768.38;5093131;28;20490;-74
2023/07/29 05:56:45;;;;;;;5.93;5.33;;;;;;;26.98;42.36;94777.63;5041187;28;20443;-74
2023/07/29 05:59:13;;;;;;;5.10;4.67;;;;;;;27.17;42.87;94764.88;5093377;28;20445;-74
2023/07/29 06:01:40;;;;;;;5.17;4.70;;;;;;;27.49;42.55;94768.00;5093111;28;20450;-74
2023/07/29 06:04:07;;;;;;;8.73;5.33;;;;;;;27.90;41.98;94758.88;5093153;28;20440;-74
2023/07/29 06:06:34;;;;;;;5.97;5.00;;;;;;;28.15;41.62;94760.41;5093399;28;20439;-74
2023/07/29 06:09:02;;;;;;;8.03;5.20;;;;;;;28.41;41.73;94767.94;5040928;28;20446;-74
2023/07/29 06:11:29;;;;;;;5.13;4.33;;;;;;;28.72;41.14;94755.75;5093366;28;20811;-74
2023/07/29 06:13:55;;;;;;;7.47;5.00;;;;;;;29.02;40.88;94768.94;5092637;28;21008;-74
2023/07/29 06:16:27;;;;;;;10.37;5.67;;;;;;;29.38;39.32;94764.88;5092882;28;20930;-75
2023/07/29 06:18:53;;;;;;;4.90;4.50;;;;;;;29.58;38.87;94762.47;5092700;28;20452;-74
2023/07/29 06:21:20;;;;;;;7.20;5.40;;;;;;;29.54;39.53;94755.94;5092925;28;20514;-74
2023/07/29 06:23:47;;;;;;;7.30;5.20;;;;;;;29.64;39.25;94757.94;5092827;28;20444;-74
2023/07/29 06:26:17;;;;;;;8.00;5.40;;;;;;;29.77;39.21;94756.72;5092763;28;20448;-74
2023/07/29 06:28:44;;;;;;;5.30;4.87;;;;;;;30.02;39.15;94759.72;5092652;28;20447;-74
2023/07/29 06:31:11;;;;;;;8.90;5.20;;;;;;;29.86;39.41;94749.81;5040412;28;20436;-74
2023/07/29 06:33:39;;;;;;;5.60;5.10;;;;;;;29.60;40.23;94751.41;5092486;28;20483;-74
2023/07/29 06:36:08;;;;;;;7.03;5.20;;;;;;;29.32;39.72;94752.34;5092525;28;20451;-73
2023/07/29 06:38:38;;;;;;;6.37;5.00;;;;;;;29.11;40.70;94742.31;5092601;28;20785;-73
2023/07/29 06:41:06;;;;;;;8.10;5.27;;;;;;;28.41;41.80;94743.66;5092644;28;20507;-75
2023/07/29 06:43:33;;;;;;;6.60;5.43;;;;;;;28.34;41.99;94734.91;5092860;28;20461;-75
2023/07/29 06:46:04;;;;;;;5.87;5.23;;;;;;;28.43;41.52;94735.31;5092250;28;20455;-76
2023/07/29 06:48:31;;;;;;;5.67;5.07;;;;;;;28.83;42.10;94727.84;5092334;28;20605;-76
2023/07/29 06:51:04;;;;;;;5.53;4.83;;;;;;;29.11;41.56;94726.91;5092371;28;20432;-75
2023/07/29 06:53:31;;;;;;;5.70;4.67;;;;;;;29.12;41.96;94728.56;5092187;28;20489;-74
2023/07/29 06:55:57;;;;;;;6.20;5.03;;;;;;;29.36;40.32;94722.94;5056592;28;20431;-74
2023/07/29 06:58:24;;;;;;;5.53;5.03;;;;;;;29.07;40.34;94731.19;5092421;28;20527;-73
2023/07/29 07:00:53;;;;;;;6.50;5.20;;;;;;;28.87;41.17;94729.00;5092534;28;20450;-73
2023/07/29 07:03:20;;;;;;;5.57;5.03;;;;;;;29.22;40.43;94722.50;5092117;28;20981;-73
2023/07/29 07:05:47;;;;;;;5.73;4.17;;;;;;;29.40;40.31;94724.88;5092555;28;20447;-74
2023/07/29 07:08:15;;;;;;;5.70;4.80;;;;;;;29.67;40.01;94722.25;5091982;28;20448;-74
2023/07/29 07:10:42;;;;;;;8.30;5.20;;;;;;;29.40;39.28;94729.47;5091945;28;20446;-73
2023/07/29 07:13:08;;;;;;;7.23;4.93;;;;;;;29.45;40.90;94724.97;5091869;28;20440;-73
2023/07/29 07:15:35;;;;;;;13.73;5.23;;;;;;;29.87;40.02;94740.63;5092115;28;20444;-73
2023/07/29 07:18:06;;;;;;;6.30;5.10;;;;;;;29.89;39.95;94735.78;5091821;28;20439;-73
2023/07/29 07:20:37;;;;;;;5.63;5.03;;;;;;;30.09;39.33;94730.63;5091499;28;20451;-73
2023/07/29 07:23:10;;;;;;;5.03;4.50;;;;;;;30.04;38.83;94722.41;5091744;28;20493;-73
2023/07/29 07:25:38;;;;;;;5.50;5.10;;;;;;;29.99;38.71;94735.88;5091801;28;20451;-73
2023/07/29 07:28:08;;;;;;;5.23;4.60;;;;;;;29.78;39.08;94736.72;5091810;28;20439;-74
2023/07/29 07:30:42;;;;;;;5.40;4.60;;;;;;;30.05;38.92;94728.66;5091724;28;20459;-74
2023/07/29 07:33:09;;;;;;;6.53;5.93;;;;;;;30.03;39.64;94728.91;5091647;28;20477;-74
2023/07/29 07:35:36;;;;;;;4.87;4.40;;;;;;;29.96;39.28;94722.84;5040026;28;20432;-74
2023/07/29 07:38:03;;;;;;;8.80;5.17;;;;;;;30.11;37.83;94725.75;5091486;28;20485;-74
2023/07/29 07:40:31;;;;;;;5.10;4.70;;;;;;;29.72;38.22;94724.19;5091541;28;20483;-74
2023/07/29 07:42:59;;;;;;;6.07;4.30;;;;;;;29.75;38.20;94727.22;5091463;28;20454;-73
2023/07/29 07:45:31;;;;;;;5.30;4.80;;;;;;;29.73;39.86;94723.13;5091375;28;20459;-73
2023/07/29 07:47:58;;;;;;;6.63;4.73;;;;;;;29.73;39.05;94728.53;5091450;28;20432;-74
2023/07/29 07:50:25;;;;;;;10.10;5.07;;;;;;;30.07;39.06;94723.78;5091502;28;20994;-74
2023/07/29 07:52:52;;;;;;;4.57;4.20;;;;;;;30.13;39.93;94723.63;5091399;28;20432;-74
2023/07/29 07:55:21;;;;;;;6.90;4.97;;;;;;;29.78;38.90;94734.00;5091185;28;20491;-73
2023/07/29 07:57:48;;;;;;;7.07;4.47;;;;;;;30.08;39.55;94728.16;5091404;28;20459;-74
2023/07/29 08:00:21;;;;;;;5.47;4.83;;;;;;;30.37;37.45;94724.13;5091319;28;20803;-74
2023/07/29 08:02:52;;;;;;;4.77;4.37;;;;;;;30.62;36.54;94717.28;5091540;28;20553;-73
2023/07/29 08:05:21;;;;;;;5.23;3.80;;;;;;;30.88;35.69;94721.00;5091383;28;20534;-74
2023/07/29 08:07:49;;;;;;;4.07;3.77;;;;;;;31.02;35.89;94725.72;5055468;28;20994;-74
2023/07/29 08:10:26;;;;;;;6.20;4.23;;;;;;;31.34;35.69;94716.72;5091250;28;20452;-74
2023/07/29 08:13:00;;;;;;;6.70;4.10;;;;;;;31.49;33.91;94724.09;5091206;28;20469;-74
2023/07/29 08:15:28;;;;;;;10.30;4.10;;;;;;;31.36;34.32;94719.97;5040209;28;21004;-73
2023/07/29 08:17:57;;;;;;;3.90;3.63;;;;;;;31.32;34.50;94725.13;5091375;28;20439;-74
2023/07/29 08:20:25;;;;;;;4.10;3.70;;;;;;;30.91;33.02;94724.00;5091450;28;20440;-74
2023/07/29 08:22:54;;;;;;;3.90;3.60;;;;;;;30.57;33.37;94728.06;5091264;28;20795;-74
2023/07/29 08:25:24;;;;;;;4.03;3.70;;;;;;;30.48;34.57;94727.72;5091051;28;20444;-75
2023/07/29 08:27:54;;;;;;;8.20;4.23;;;;;;;30.60;33.61;94731.09;5091212;28;20463;-73
2023/07/29 08:30:28;;;;;;;7.30;4.50;;;;;;;30.70;34.57;94727.66;5091163;28;20443;-73
2023/07/29 08:32:58;;;;;;;6.50;4.43;;;;;;;30.57;33.99;94726.16;5060850;28;20566;-73
2023/07/29 08:35:33;;;;;;;5.33;4.57;;;;;;;30.11;34.90;94717.66;5094988;28;20900;-74
2023/07/29 08:38:03;;;;;;;8.63;5.17;;;;;;;30.15;36.26;94717.94;5045513;28;20486;-73
2023/07/29 08:40:32;;;;;;;5.93;4.17;;;;;;;30.06;35.28;94711.34;5042921;28;21712;-74
2023/07/29 08:43:07;;;;;;;5.37;4.50;;;;;;;30.35;35.50;94709.19;5094936;28;20442;-74
2023/07/29 08:45:36;;;;;;;5.93;3.70;;;;;;;30.66;34.92;94716.53;5043845;28;20462;-73
2023/07/29 08:48:20;;;;;;;4.57;4.17;;;;;;;30.98;34.63;94712.97;5094635;28;20505;-74
2023/07/29 08:50:48;;;;;;;5.13;4.60;;;;;;;30.99;34.46;94704.56;5094666;28;20440;-74
2023/07/29 08:53:15;;;;;;;10.20;4.93;;;;;;;30.80;34.79;94706.88;5094830;28;20447;-73
2023/07/29 08:55:52;;;;;;;9.20;4.97;;;;;;;30.39;35.32;94707.63;5094762;28;20780;-74
2023/07/29 08:58:22;;;;;;;8.10;4.30;;;;;;;30.23;35.48;94703.94;5094874;28;20447;-73
2023/07/29 09:00:50;;;;;;;8.20;4.73;;;;;;;30.53;35.77;94697.97;5095179;28;20475;-74
2023/07/29 09:03:21;;;;;;;5.97;4.00;;;;;;;30.55;34.93;94698.53;5095504;28;20443;-73
2023/07/29 09:05:48;;;;;;;4.23;3.80;;;;;;;30.19;34.55;94695.50;5060242;28;20448;-73
2023/07/29 09:08:18;;;;;;;4.03;3.73;;;;;;;30.44;34.95;94692.22;5095339;28;20444;-73
2023/07/29 09:10:46;;;;;;;5.77;4.67;;;;;;;30.72;35.09;94693.00;5043860;28;20479;-73
2023/07/29 09:13:13;;;;;;;9.43;4.40;;;;;;;30.85;32.77;94681.69;5095054;28;20452;-73
2023/07/29 09:15:42;;;;;;;3.70;3.40;;;;;;;30.45;33.12;94693.03;5094758;28;20487;-74
2023/07/29 09:18:19;;;;;;;4.47;3.63;;;;;;;30.05;32.90;94688.88;5095200;28;20443;-74
2023/07/29 09:20:49;;;;;;;3.87;3.57;;;;;;;29.98;34.41;94685.53;5100691;28;20459;-76
2023/07/29 09:23:18;;;;;;;4.30;3.90;;;;;;;30.42;33.90;94671.88;5104165;28;20463;-74
2023/07/29 09:25:47;;;;;;;3.80;3.50;;;;;;;30.64;32.54;94680.72;5097131;28;20987;-73
2023/07/29 09:28:15;;;;;;;3.30;2.97;;;;;;;30.75;32.53;94671.63;5095356;28;20440;-73
2023/07/29 09:30:43;;;;;;;2.33;2.23;;;;;;;30.60;30.68;94671.50;5095699;28;20444;-74
2023/07/29 09:33:11;;;;;;;2.60;2.40;;;;;;;30.14;32.52;94663.00;5094327;28;20440;-74
2023/07/29 09:35:38;;;;;;;3.13;2.30;;;;;;;30.00;32.02;94661.72;5093555;28;20479;-74
2023/07/29 09:38:07;;;;;;;6.50;2.73;;;;;;;29.91;32.63;94661.38;5041350;28;20432;-74
2023/07/29 09:40:38;;;;;;;3.10;2.90;;;;;;;29.98;32.75;94666.59;5093545;28;20451;-74
2023/07/29 09:43:08;;;;;;;3.10;2.80;;;;;;;29.45;32.91;94667.38;5093208;28;20440;-75
2023/07/29 09:45:43;;;;;;;3.50;3.20;;;;;;;29.50;33.96;94670.97;5073159;28;20433;-74
2023/07/29 09:48:18;;;;;;;2.60;2.40;;;;;;;29.85;33.54;94659.72;5072892;28;20452;-75
2023/07/29 09:50:44;;;;;;;5.00;3.07;;;;;;;30.23;33.64;94657.09;4974439;28;20439;-74
2023/07/29 09:53:13;;;;;;;2.43;2.13;;;;;;;30.41;32.31;94654.00;5072967;28;20946;-75
2023/07/29 09:55:40;;;;;;;2.60;2.40;;;;;;;30.53;32.77;94646.50;5021351;28;20480;-74
2023/07/29 09:58:08;;;;;;;2.57;2.40;;;;;;;30.46;32.67;94648.63;5072945;28;20977;-74
2023/07/29 10:00:38;;;;;;;2.90;2.60;;;;;;;30.66;32.46;94645.28;5073223;28;20935;-75
2023/07/29 10:03:07;;;;;;;6.13;3.53;;;;;;;30.73;34.27;94641.25;5022142;28;20453;-75
2023/07/29 10:05:34;;;;;;;3.93;2.60;;;;;;;30.79;32.29;94647.53;5073085;28;20449;-76
2023/07/29 10:08:02;;;;;;;3.70;3.40;;;;;;;30.81;33.18;94642.66;5020966;28;20445;-75
2023/07/29 10:10:31;;;;;;;2.93;2.70;;;;;;;30.73;31.88;94640.44;5072929;28;20448;-75
2023/07/29 10:12:58;;;;;;;3.10;2.80;;;;;;;30.61;32.35;94643.34;5072916;28;20453;-75
2023/07/29 10:15:26;;;;;;;2.70;2.50;;;;;;;30.63;33.18;94641.19;5037306;28;20480;-76
2023/07/29 10:17:53;;;;;;;4.10;3.10;;;;;;;30.52;32.79;94637.56;5072816;28;20445;-76
2023/07/29 10:20:20;;;;;;;3.00;2.77;;;;;;;30.33;32.38;94635.50;5072785;28;20441;-76
2023/07/29 10:22:49;;;;;;;5.40;2.70;;;;;;;30.10;32.64;94629.41;5072711;28;20444;-76
2023/07/29 10:25:17;;;;;;;4.13;3.27;;;;;;;29.84;32.79;94622.09;5086848;28;20523;-76
2023/07/29 10:27:49;;;;;;;5.87;2.80;;;;;;;30.09;33.63;94619.66;5092888;28;20439;-75
2023/07/29 10:30:16;;;;;;;4.93;3.07;;;;;;;30.33;33.79;94616.56;5092580;28;20451;-76
2023/07/29 10:32:44;;;;;;;2.70;2.50;;;;;;;30.42;32.23;94606.91;5041428;28;20436;-75
2023/07/29 10:35:11;;;;;;;2.70;2.40;;;;;;;30.41;32.19;94599.84;5093358;28;20523;-75
2023/07/29 10:37:39;;;;;;;7.53;3.00;;;;;;;30.35;32.18;94606.28;5093620;28;20447;-75
2023/07/29 10:40:09;;;;;;;5.50;2.40;;;;;;;30.11;32.31;94595.84;5093379;28;20451;-75
2023/07/29 10:42:36;;;;;;;2.93;2.50;;;;;;;30.27;31.90;94593.25;5093525;28;20479;-75
2023/07/29 10:45:19;;;;;;;2.87;2.23;;;;;;;30.47;32.50;94585.25;5085158;28;20444;-75
2023/07/29 10:47:46;;;;;;;2.87;2.30;;;;;;;30.72;31.67;94596.28;5074717;28;20444;-75
2023/07/29 10:50:19;;;;;;;2.07;1.97;;;;;;;30.88;30.25;94588.22;5036895;28;20573;-75
2023/07/29 10:52:50;;;;;;;2.80;2.13;;;;;;;30.88;30.45;94582.78;5073224;28;20443;-75
2023/07/29 10:55:29;;;;;;;2.53;2.33;;;;;;;31.00;30.81;94581.53;5072074;28;20488;-76
2023/07/29 10:58:07;;;;;;;2.23;2.03;;;;;;;31.14;29.95;94581.84;5073142;28;20480;-76
2023/07/29 11:00:36;;;;;;;3.00;2.30;;;;;;;31.07;29.24;94579.38;5072977;28;20498;-76
2023/07/29 11:03:05;;;;;;;3.80;2.27;;;;;;;31.11;31.40;94576.94;5073123;28;20449;-76
2023/07/29 11:05:47;;;;;;;1.70;1.60;;;;;;;31.04;30.37;94576.38;5073087;28;20452;-76
2023/07/29 11:08:21;;;;;;;3.63;2.00;;;;;;;31.05;28.84;94578.00;5072859;28;20983;-75
2023/07/29 11:11:06;;;;;;;1.70;1.60;;;;;;;30.96;29.63;94576.91;5072811;28;20445;-76
2023/07/29 11:13:34;;;;;;;1.80;1.70;;;;;;;30.85;29.89;94567.88;5072619;28;20890;-76
2023/07/29 11:16:05;;;;;;;1.93;1.73;;;;;;;31.09;29.57;94562.84;5072496;28;20492;-76
2023/07/29 11:18:33;;;;;;;1.70;1.60;;;;;;;30.94;29.67;94566.31;5072955;28;20445;-76
2023/07/29 11:21:01;;;;;;;3.00;2.00;;;;;;;31.04;29.07;94560.13;5072718;28;20484;-76
2023/07/29 11:23:32;;;;;;;2.27;2.07;;;;;;;31.14;30.21;94560.94;5072820;28;20918;-75
2023/07/29 11:26:00;;;;;;;3.23;1.80;;;;;;;31.27;30.90;94559.69;5072529;28;20453;-76
2023/07/29 11:28:27;;;;;;;1.98;1.88;;;;;;;31.46;30.21;94556.47;5072594;28;20519;-76
2023/07/29 11:30:55;;;;;;;5.33;2.50;;;;;;;31.29;28.77;94557.53;5072473;28;20209;-76
2023/07/29 11:33:25;;;;;;;2.00;1.80;;;;;;;31.20;29.52;94559.09;5072811;28;20441;-76
2023/07/29 11:35:52;;;;;;;2.43;2.20;;;;;;;31.43;29.95;94555.09;5072221;28;20978;-76
2023/07/29 11:38:20;;;;;;;2.47;1.90;;;;;;;31.65;28.85;94555.69;5072434;28;20448;-76